Main page
Satellite images 15-day forecastsClimateMarine weather Cyclones Lightning AirportsFAQ Newsletter About
Weather : Europe Africa North America South America Asia Australia-Oceania Others
Languages Contact

Longyearbyen, Norway

Svalbard

latitude: 78-15N, longitude: 015-28E, elevation: 2 m


METAR: ENSB 220350Z 14010KT 9999 FEW025 M02/M07 Q1022 RMK WIND 1400FT 12010KT
TAF: ENSB 2203/2303 12009KT 9999 FEW020

Time: 06:12 (04:12 UTC)

Current weather observation

The report was made 22 minutes ago, at 03:50 UTC  
Wind 10 kt from the Southeast
Temperature -2°C
Humidity 69%
Pressure 1022 hPa
Visibility 10 km or more
Few clouds at a height of 2500 ft

Change units

Forecast

Forecast valid from 22 at 03 UTC to 23 at 03 UTC
Wind 09 kt from the East/Southeast
Visibility 10 km or more
Few clouds at a height of 2000 ft
The information on this site is subject to a disclaimer
Weather : Europe Africa North America South America Asia Australia-Oceania Others
Satellite images 15-day forecastsClimateMarine weather Cyclones Lightning AirportsFAQ Languages Contact Newsletter About